createdAt,value
2023-05-09T00:04:39.526Z,99.14
2023-05-09T00:09:36.103Z,96.94
2023-05-09T00:14:33.203Z,98.37
2023-05-09T00:19:29.730Z,97.93
2023-05-09T00:24:28.080Z,98.13
2023-05-09T00:29:24.833Z,97.97
2023-05-09T00:34:21.450Z,97.65
2023-05-09T00:39:18.146Z,98.37
2023-05-09T00:44:15.702Z,96.91
2023-05-09T00:49:12.404Z,96.64
2023-05-09T00:54:11.094Z,97.59
2023-05-09T00:59:08.552Z,96.95
2023-05-09T01:04:06.024Z,95.04
2023-05-09T01:09:07.755Z,94.37
2023-05-09T01:14:08.096Z,94.14
2023-05-09T01:19:12.242Z,94.08
2023-05-09T01:24:29.716Z,94.27
2023-05-09T01:29:31.754Z,94.92
2023-05-09T01:34:28.822Z,93.46
2023-05-09T01:39:26.892Z,92.28
2023-05-09T01:44:25.383Z,92.58
2023-05-09T01:49:23.821Z,94.07
2023-05-09T01:54:22.123Z,94.20
2023-05-09T01:59:19.125Z,94.19
2023-05-09T02:04:16.492Z,94.14
2023-05-09T02:09:13.808Z,93.41
2023-05-09T02:14:10.619Z,94.03
2023-05-09T02:19:07.515Z,93.93
2023-05-09T02:24:06.629Z,94.94
2023-05-09T02:29:06.728Z,95.06
2023-05-09T02:34:04.594Z,93.29
2023-05-09T02:39:01.946Z,93.35
2023-05-09T02:43:59.478Z,92.21
2023-05-09T02:48:56.703Z,92.18
2023-05-09T02:53:53.896Z,90.60
2023-05-09T02:58:50.810Z,91.01
2023-05-09T03:03:47.411Z,91.57
2023-05-09T03:08:46.721Z,92.82
2023-05-09T03:13:43.361Z,92.58
2023-05-09T03:18:40.021Z,92.76
2023-05-09T03:23:36.873Z,93.11
2023-05-09T03:28:34.503Z,91.16
2023-05-09T03:33:34.567Z,90.08
2023-05-09T03:38:31.614Z,89.34
2023-05-09T03:43:28.692Z,90.31
2023-05-09T03:48:26.841Z,88.48
2023-05-09T03:53:23.509Z,88.79
2023-05-09T03:58:22.105Z,88.75
2023-05-09T04:03:18.988Z,88.86
2023-05-09T04:08:18.287Z,88.48
2023-05-09T04:13:15.916Z,87.07
2023-05-09T04:18:13.163Z,87.32
2023-05-09T04:23:10.008Z,88.16
2023-05-09T04:28:08.153Z,86.98
2023-05-09T04:33:04.930Z,85.86
2023-05-09T04:38:04.441Z,87.14
2023-05-09T04:43:01.342Z,85.97
2023-05-09T04:48:01.117Z,86.38
2023-05-09T04:52:58.922Z,87.21
2023-05-09T04:57:56.529Z,86.14
2023-05-09T05:02:53.487Z,84.70
2023-05-09T05:07:50.881Z,85.91
2023-05-09T05:12:51.486Z,84.59
2023-05-09T05:17:48.568Z,85.93
2023-05-09T05:22:48.467Z,84.26
2023-05-09T05:27:46.049Z,84.77
2023-05-09T05:32:43.717Z,85.04
2023-05-09T05:37:43.065Z,86.14
2023-05-09T05:42:40.425Z,84.98
2023-05-09T05:47:38.005Z,85.83
2023-05-09T05:52:37.188Z,83.91
2023-05-09T05:57:35.952Z,83.20
2023-05-09T06:02:35.340Z,83.18
2023-05-09T06:07:35.804Z,85.22
2023-05-09T06:12:33.272Z,86.04
2023-05-09T06:17:30.189Z,85.11
2023-05-09T06:22:28.405Z,85.62
2023-05-09T06:27:26.061Z,86.10
2023-05-09T06:32:24.526Z,84.87
2023-05-09T06:37:24.033Z,84.81
2023-05-09T06:42:20.843Z,85.25
2023-05-09T06:47:19.702Z,85.03
2023-05-09T06:52:16.491Z,84.10
2023-05-09T06:57:13.088Z,84.01
2023-05-09T07:02:09.786Z,84.28
2023-05-09T07:07:07.275Z,82.77
2023-05-09T07:12:04.339Z,82.79
2023-05-09T07:22:20.157Z,81.32
2023-05-09T07:27:17.028Z,81.29
2023-05-09T07:32:29.971Z,78.42
2023-05-09T07:37:27.439Z,79.60
2023-05-09T07:42:24.194Z,79.00
2023-05-09T07:47:24.070Z,80.21
2023-05-09T07:52:23.000Z,80.41
2023-05-09T07:57:20.530Z,81.48
2023-05-09T08:02:18.622Z,81.39
2023-05-09T08:07:15.278Z,80.76
2023-05-09T08:12:12.088Z,81.44
2023-05-09T08:17:09.690Z,81.58
2023-05-09T08:22:06.638Z,79.57
2023-05-09T08:27:09.056Z,79.41
2023-05-09T08:32:09.497Z,78.07
2023-05-09T08:37:07.360Z,80.33
2023-05-09T08:42:04.761Z,79.70
2023-05-09T08:47:02.356Z,80.02
2023-05-09T08:51:59.597Z,80.33
2023-05-09T08:56:58.499Z,78.88
2023-05-09T09:01:59.306Z,79.24
2023-05-09T09:06:56.170Z,79.90
2023-05-09T09:11:55.036Z,75.83
2023-05-09T09:16:54.312Z,74.52
2023-05-09T09:21:54.415Z,72.73
2023-05-09T09:26:51.143Z,72.09
2023-05-09T09:31:52.109Z,73.17
2023-05-09T09:36:49.679Z,74.61
2023-05-09T09:41:46.710Z,72.24
2023-05-09T09:46:44.632Z,72.34
2023-05-09T09:51:41.272Z,71.45
2023-05-09T09:56:40.017Z,71.33
2023-05-09T10:01:52.828Z,69.87
2023-05-09T10:06:53.128Z,68.71
2023-05-09T10:11:51.855Z,68.00
2023-05-09T10:16:49.225Z,69.20
2023-05-09T10:21:49.060Z,69.58
2023-05-09T10:26:46.351Z,68.67
2023-05-09T10:31:45.503Z,68.72
2023-05-09T10:36:42.746Z,67.87
2023-05-09T10:41:50.856Z,66.43
2023-05-09T10:46:48.621Z,65.49
2023-05-09T10:51:45.356Z,64.35
2023-05-09T10:56:42.129Z,65.97
2023-05-09T11:01:38.927Z,67.07
2023-05-09T11:06:48.864Z,66.93
2023-05-09T11:11:51.262Z,67.39
2023-05-09T11:16:57.269Z,66.11
2023-05-09T11:22:02.466Z,66.54
2023-05-09T11:26:59.343Z,66.40
2023-05-09T11:32:08.011Z,64.82
2023-05-09T11:37:11.411Z,63.58
2023-05-09T11:42:08.801Z,65.04
2023-05-09T11:47:05.556Z,63.02
2023-05-09T11:52:02.197Z,63.56
2023-05-09T11:56:59.944Z,63.02
2023-05-09T12:01:56.625Z,63.33
2023-05-09T12:06:53.201Z,63.28
2023-05-09T12:11:50.375Z,62.20
2023-05-09T12:16:47.655Z,62.96
2023-05-09T12:21:44.350Z,62.56
2023-05-09T12:26:41.128Z,60.44
2023-05-09T12:31:38.108Z,63.96
2023-05-09T12:36:35.975Z,61.14
2023-05-09T12:41:41.495Z,62.55
2023-05-09T12:46:52.834Z,63.17
2023-05-09T12:51:50.650Z,62.61
2023-05-09T12:56:47.585Z,63.85
2023-05-09T13:01:44.138Z,64.07
2023-05-09T13:06:47.954Z,62.01
2023-05-09T13:11:45.498Z,62.60
2023-05-09T13:16:43.201Z,62.14
2023-05-09T13:21:39.924Z,61.93
2023-05-09T13:26:36.534Z,62.03
2023-05-09T13:31:36.299Z,62.64
2023-05-09T13:36:35.024Z,63.27
2023-05-09T13:41:34.872Z,63.74
2023-05-09T13:46:33.177Z,63.67
2023-05-09T13:51:29.811Z,62.60
2023-05-09T13:56:26.457Z,61.60
2023-05-09T14:01:23.285Z,61.31
2023-05-09T14:06:20.654Z,63.54
2023-05-09T14:11:17.370Z,64.44
2023-05-09T14:16:14.070Z,64.27
2023-05-09T14:21:11.061Z,64.20
2023-05-09T14:26:11.123Z,64.26
2023-05-09T14:31:07.795Z,63.72
2023-05-09T14:36:07.478Z,62.71
2023-05-09T14:41:06.008Z,64.04
2023-05-09T14:46:03.364Z,65.21
2023-05-09T14:51:00.176Z,64.97
2023-05-09T14:55:56.685Z,63.37
2023-05-09T15:00:56.594Z,61.00
2023-05-09T15:05:54.087Z,61.64
2023-05-09T15:10:50.714Z,63.70
2023-05-09T15:15:47.236Z,64.04
2023-05-09T15:20:46.125Z,63.36
2023-05-09T15:25:43.856Z,65.60
2023-05-09T15:30:41.071Z,63.73
2023-05-09T15:35:39.631Z,62.27
2023-05-09T15:40:36.169Z,62.83
2023-05-09T15:45:37.261Z,63.23
2023-05-09T15:50:38.015Z,63.11
2023-05-09T15:55:34.843Z,64.78
2023-05-09T16:00:31.420Z,64.61
2023-05-09T16:05:28.909Z,64.62
2023-05-09T16:10:25.728Z,65.71
2023-05-09T16:15:26.503Z,65.92
2023-05-09T16:20:23.551Z,65.68
2023-05-09T16:25:23.100Z,67.01
2023-05-09T16:30:19.860Z,67.34
2023-05-09T16:35:16.708Z,67.16
2023-05-09T16:40:14.304Z,66.83
2023-05-09T16:45:12.315Z,66.40
2023-05-09T16:50:09.885Z,67.78
2023-05-09T16:55:07.639Z,70.09
2023-05-09T17:00:07.471Z,69.02
2023-05-09T17:05:05.450Z,71.37
2023-05-09T17:10:05.558Z,74.96
2023-05-09T17:15:02.420Z,77.42
2023-05-09T17:20:00.634Z,78.98
2023-05-09T17:24:58.267Z,81.16
2023-05-09T17:29:57.219Z,79.18
2023-05-09T17:34:57.252Z,78.37
2023-05-09T17:39:53.922Z,77.43
2023-05-09T17:44:54.967Z,77.77
2023-05-09T17:49:51.939Z,75.89
2023-05-09T17:54:48.521Z,76.38
2023-05-09T17:59:47.759Z,76.01
2023-05-09T18:04:45.846Z,77.41
2023-05-09T18:09:42.496Z,76.40
2023-05-09T18:14:39.159Z,77.00
2023-05-09T18:19:36.469Z,77.71
2023-05-09T18:24:33.950Z,79.05
2023-05-09T18:29:30.625Z,79.25
2023-05-09T18:34:27.791Z,78.17
2023-05-09T18:39:24.435Z,78.89
2023-05-09T18:44:21.634Z,81.28
2023-05-09T18:49:18.378Z,80.36
2023-05-09T18:54:18.160Z,79.13
2023-05-09T18:59:15.811Z,79.29
2023-05-09T19:04:14.321Z,78.48
2023-05-09T19:09:11.234Z,77.98
2023-05-09T19:14:07.942Z,77.25
2023-05-09T19:19:04.571Z,78.68
2023-05-09T19:24:02.034Z,79.50
2023-05-09T19:29:00.122Z,79.64
2023-05-09T19:33:56.698Z,80.89
2023-05-09T19:38:53.217Z,81.04
2023-05-09T19:43:50.774Z,79.74
2023-05-09T19:48:47.570Z,80.58
2023-05-09T19:53:44.531Z,79.60
2023-05-09T19:58:41.265Z,80.60
2023-05-09T20:03:40.379Z,78.88
2023-05-09T20:08:37.215Z,79.20
2023-05-09T20:13:36.399Z,79.82
2023-05-09T20:18:33.009Z,78.40
2023-05-09T20:23:30.753Z,77.84
2023-05-09T20:28:27.486Z,76.85
2023-05-09T20:33:24.117Z,78.58
2023-05-09T20:38:20.625Z,77.01
2023-05-09T20:43:18.514Z,77.88
2023-05-09T20:48:15.068Z,79.02
2023-05-09T20:53:11.657Z,79.47
2023-05-09T20:58:08.495Z,78.43
2023-05-09T21:03:06.039Z,78.28
2023-05-09T21:08:02.726Z,78.04
2023-05-09T21:12:59.454Z,77.06
2023-05-09T21:17:56.076Z,76.64
2023-05-09T21:22:53.545Z,77.04
2023-05-09T21:27:50.262Z,76.01
2023-05-09T21:32:46.831Z,76.27
2023-05-09T21:37:43.419Z,76.42
2023-05-09T21:42:41.253Z,78.30
2023-05-09T21:47:38.993Z,79.22
2023-05-09T21:52:35.623Z,79.61
2023-05-09T21:57:32.164Z,78.67
2023-05-09T22:02:29.487Z,78.37
2023-05-09T22:07:26.117Z,77.63
2023-05-09T22:12:22.832Z,77.75
2023-05-09T22:17:19.456Z,77.39
2023-05-09T22:22:17.892Z,77.31
2023-05-09T22:27:14.457Z,77.64
2023-05-09T22:32:11.119Z,78.51
2023-05-09T22:37:07.772Z,80.37
2023-05-09T22:42:05.046Z,81.14
2023-05-09T22:47:01.536Z,81.79
2023-05-09T22:51:58.247Z,81.22
2023-05-09T22:56:54.881Z,80.06
2023-05-09T23:01:53.082Z,78.94
2023-05-09T23:06:49.764Z,77.65
2023-05-09T23:11:46.648Z,76.40
2023-05-09T23:16:43.178Z,75.39
2023-05-09T23:21:40.468Z,76.74
2023-05-09T23:26:37.043Z,76.78
2023-05-09T23:31:33.695Z,78.52
2023-05-09T23:36:30.915Z,79.13
2023-05-09T23:41:28.158Z,78.44
2023-05-09T23:46:24.979Z,78.94
2023-05-09T23:51:24.914Z,78.80
2023-05-09T23:56:21.926Z,79.01
